Bewolking Meer informatie Parkstad Weather Satellite


Neerslagradar Meer informatie Parkstad Rain Snow Radar


Onweersbuien Meer informatie Parkstad Lighntning


24/7 Weercamera Meer informatie Parkstad Weathercam


Natuurbrandrisico
CBI






Extreme hitte Van: 24-08-2019 09:00 tot: 26-08-2019 00:00 Waarschuwing voor Parkstad (045): Extreme hitte  Niveau: Geel. info button

METAR rapporten vliegvelden

   
EHBK - Beek Nederland
Gewijzigd: 24-08-2019 04:25
Helder  
Helder  
   Wind: OZO 1.9 km/h
Wind: OZO 1.9 km/h
Temperatuur: 13°C
Dauwpunt: 12°C
Vochtigheid: 94%
Barometer: 1021 hPa
Satelliet beelden: Helder
Zicht: meer dan 10 km
Bewolking: Helder
EHBK 240225Z AUTO 11001KT 9999 NCD 13/12 Q1021
EHBK - Maastricht Nederland
Gewijzigd: 24-08-2019 04:25
Helder  
Helder  
   Wind: OZO 1.9 km/h
Wind: OZO 1.9 km/h
Temperatuur: 13°C
Dauwpunt: 12°C
Vochtigheid: 94%
Barometer: 1021 hPa
Satelliet beelden: Helder
Zicht: meer dan 10 km
Bewolking: Helder
EHBK 240225Z AUTO 11001KT 9999 NCD 13/12 Q1021
EBLG - Liège België
Gewijzigd: 24-08-2019 04:50
Helder  
Helder  
   Wind: OZO 16.7 km/h
Wind: OZO 16.7 km/h
Temperatuur: 17°C
Dauwpunt: 11°C
Vochtigheid: 68%
Barometer: 1021 hPa
Zicht: meer dan 10 km
Bewolking: Helder
EBLG 240250Z 12009KT CAVOK 17/11 Q1021 NOSIG
EDDK - Köln/Bonn Duitsland
Gewijzigd: 24-08-2019 04:50
Helder  
Helder  
   Wind: OZO 5.6 km/h
Wind: OZO 5.6 km/h
Temperatuur: 14°C
Dauwpunt: 11°C
Vochtigheid: 82%
Barometer: 1022 hPa
Zicht: meer dan 10 km
Bewolking: Helder
EDDK 240250Z 11003KT 030V160 CAVOK 14/11 Q1022 NOSIG
EDDL - Düsseldorf Duitsland
Gewijzigd: 24-08-2019 04:50
Helder  
Helder  
   Wind: Oosten 3.7 km/h
Wind: Oosten 3.7 km/h
Temperatuur: 13°C
Dauwpunt: 11°C
Vochtigheid: 88%
Barometer: 1021 hPa
Zicht: meer dan 10 km
Bewolking: Helder
EDDL 240250Z 09002KT CAVOK 13/11 Q1021 NOSIG
EHEH - Eindhoven Nederland
Gewijzigd: 24-08-2019 04:25
Helder  
Helder  
   Wind: NO 5.6 km/h
Wind: NO 5.6 km/h
Temperatuur: 14°C
Dauwpunt: 10°C
Vochtigheid: 77%
Barometer: 1021 hPa
Satelliet beelden: Helder
Zicht: meer dan 10 km
Bewolking: Helder
EHEH 240225Z AUTO 04003KT 9999 NCD 14/10 Q1021 BLU
ELLX - Luxemburg Luxemburg
Gewijzigd: 24-08-2019 04:50
Helder  
Helder  
   Wind: NNO 13 km/h
Wind: NNO 13 km/h
Temperatuur: 17°C
Dauwpunt: 9°C
Vochtigheid: 59%
Barometer: 1022 hPa
Zicht: meer dan 10 km
Bewolking: Helder
ELLX 240250Z 03007KT CAVOK 17/09 Q1022 NOSIG
EGLL - London England
Gewijzigd: 24-08-2019 04:50
Helder  
Helder  
   Wind: Oosten 3.7 km/h
Wind: Oosten 3.7 km/h
Temperatuur: 15°C
Dauwpunt: 14°C
Vochtigheid: 94%
Barometer: 1021 hPa
Satelliet beelden: Helder
Zicht: meer dan 10 km
Bewolking: Helder
EGLL 240250Z AUTO 08002KT 9999 NCD 15/14 Q1021 NOSIG
EBAW - Antwerpen België
Gewijzigd: 24-08-2019 04:50
Helder  
Helder  
   Wind: NO 1.9 km/h
Wind: NO 1.9 km/h
Temperatuur: 13°C
Dauwpunt: 11°C
Vochtigheid: 88%
Barometer: 1021 hPa
Satelliet beelden: Helder
Zicht: 8 km
Bewolking: Helder
EBAW 240250Z AUTO 05001KT 8000 // NCD 13/11 Q1021
EBOS - Oostende België
Gewijzigd: 24-08-2019 04:50
Gedeeltelijk bewolkt  
Gedeeltelijk bewolkt  
   Wind: Oosten 13 km/h
Wind: Oosten 13 km/h
Temperatuur: 14°C
Dauwpunt: 12°C
Vochtigheid: 88%
Barometer: 1021 hPa
Satelliet beelden: Gedeeltelijk bewolkt
Zicht: 7 km
Bewolking: Gedeeltelijk bewolkt
EBOS 240250Z 08007KT 7000 NSC 14/12 Q1021 NOSIG
LEAL - La Nucia Spanje
Gewijzigd: 24-08-2019 05:00
Helder  
Helder  
   Wind: NNW 7.4 km/h
Wind: NNW 7.4 km/h
Temperatuur: 22°C
Dauwpunt: 18°C
Vochtigheid: 78%
Barometer: 1018 hPa
Zicht: meer dan 10 km
Bewolking: Helder
LEAL 240300Z 33004KT CAVOK 22/18 Q1018 NOSIG
TNCA - Oranjestad Aruba
Gewijzigd: 24-08-2019 05:00
Licht bewolkt  
Licht bewolkt  
   Wind: Oosten 37 km/h
Wind: Oosten 37 km/h
Temperatuur: 29°C
Gevoelstemperatuur: 34°C
Dauwpunt: 25°C
Vochtigheid: 79%
Barometer: 1012 hPa
Satelliet beelden: Licht bewolkt
Zicht: meer dan 10 km
Bewolking: Licht bewolkt 549 m
TNCA 240300Z 09020KT 9999 FEW018 29/25 Q1012 NOSIG
TNCC - Willemstad Curacao
Gewijzigd: 24-08-2019 04:00
Helder  
Helder  
   Wind: OZO 27.8 km/h
Wind: OZO 27.8 km/h
Temperatuur: 29°C
Gevoelstemperatuur: 33°C
Dauwpunt: 24°C
Vochtigheid: 74%
Barometer: 1013 hPa
Zicht: meer dan 10 km
Bewolking: Helder
TNCC 240200Z 12015KT CAVOK 29/24 Q1013 NOSIG
MTPP - Port au Prince Haitië
Gewijzigd: 24-08-2019 04:59
  
  
   Wind: ZO 20.4 km/h
Wind: ZO 20.4 km/h
Temperatuur: 29°C
Gevoelstemperatuur: 33°C
Dauwpunt: 24°C
Vochtigheid: 74%
Barometer: 1016 hPa
MTPP 240259Z AUTO 14011KT //// ////// 29/24 Q1016 A3000 NOSIG
ENVA - Trondheim Noorwegen
Gewijzigd: 24-08-2019 04:50
Grotendeels bewolkt  
Grotendeels bewolkt  
   Wind: OZO 5.6 km/h
Wind: OZO 5.6 km/h
Temperatuur: 12°C
Dauwpunt: 11°C
Vochtigheid: 94%
Barometer: 1022 hPa
Satelliet beelden: Grotendeels bewolkt
Zicht: meer dan 10 km
Bewolking: Licht bewolkt 671 m,
Gedeeltelijk bewolkt 1128 m,
Grotendeels bewolkt 2256 m
ENVA 240250Z 11003KT 9999 FEW022 SCT037 BKN074 12/11 Q1022 RMK WIND 670FT 22006KT
ENBO - Bodø Noorwegen
Gewijzigd: 24-08-2019 04:50
Grotendeels bewolkt  
Grotendeels bewolkt  
   Wind: NNW 7.4 km/h
Wind: NNW 7.4 km/h
Temperatuur: 12°C
Dauwpunt: 9°C
Vochtigheid: 82%
Barometer: 1021 hPa
Satelliet beelden: Grotendeels bewolkt
Zicht: meer dan 10 km
Bewolking: Licht bewolkt 366 m,
Gedeeltelijk bewolkt 610 m,
Grotendeels bewolkt 762 m
ENBO 240250Z 34004KT 9999 FEW012 SCT020 BKN025 12/09 Q1021
ETNG - Geilenkirchen Duitsland
Gewijzigd: 23-08-2019 19:50
Verouderd
Helder  
Helder  
   Wind: NNO 11.1 km/h
Wind: NNO 11.1 km/h
Temperatuur: 25°C
Dauwpunt: 12°C
Vochtigheid: 44%
Barometer: 1023 hPa
Zicht: meer dan 10 km
Bewolking: Helder
ETNG 231750Z 03006KT CAVOK 25/12 Q1023 NOSIG
 

Script ontwikkeld door  Saratoga-weather.org Aangepast voor de template door  Weerstation Leuven

U vindt ons ook hier:

Het Weer Aktueel

WOW Nederland KNMI

Vereniging voor Weerkunde en Klimatologie

UK Met Office Weather Observation Website (WOW)

WeatherCloud

Weather Underground

Awekas

Weatherlink IP

HAMweather, WeatherForYou, PWS Weather

Citizen Weather Observer Program (CWOP)

Apparatuur in gebruik:

Hardwareleverancier
Weerhuisje

Weerstation
Vantage Pro2+ UV

Weercomputer's
alix3d2 & wl330n

Weerprogramma's
Smartbedded

Satelliet NOAA's
WRX137 & KX137

Satelliet Eumetsat
Ayecka SR1 & Triax

Bliksemdetectie
Boltek StormTracker

Webleverancier
F-Service

Weerhuisje

Vantage Pro2+ UV

alix3d2 & wl330n

Smartbedded

WRX137 & KX137

Ayecka SR1 & Triax

Boltek StormTracker

F-Service